createdAt,value
2023-02-17T00:01:32.445Z,10.73
2023-02-17T00:04:00.093Z,11.38
2023-02-17T00:06:29.235Z,11.45
2023-02-17T00:08:56.601Z,12.00
2023-02-17T00:11:23.791Z,11.48
2023-02-17T00:13:53.466Z,10.70
2023-02-17T00:16:25.468Z,10.18
2023-02-17T00:18:54.900Z,11.52
2023-02-17T00:21:24.332Z,11.25
2023-02-17T00:23:52.313Z,10.77
2023-02-17T00:26:20.769Z,10.40
2023-02-17T00:28:48.693Z,11.73
2023-02-17T00:31:19.470Z,10.77
2023-02-17T00:33:46.802Z,10.63
2023-02-17T00:36:17.765Z,10.90
2023-02-17T00:38:44.596Z,10.65
2023-02-17T00:41:11.539Z,10.02
2023-02-17T00:43:38.320Z,10.25
2023-02-17T00:46:06.045Z,11.75
2023-02-17T00:48:33.462Z,10.63
2023-02-17T00:51:00.412Z,9.65
2023-02-17T00:53:28.054Z,10.05
2023-02-17T00:55:54.830Z,10.18
2023-02-17T00:58:21.876Z,9.90
2023-02-17T01:00:48.720Z,8.85
2023-02-17T01:03:16.069Z,10.18
2023-02-17T01:05:45.466Z,10.00
2023-02-17T01:08:12.875Z,9.27
2023-02-17T01:10:42.473Z,9.57
2023-02-17T01:13:10.236Z,9.40
2023-02-17T01:15:42.080Z,8.98
2023-02-17T01:18:08.995Z,9.07
2023-02-17T01:20:37.576Z,9.07
2023-02-17T01:23:05.285Z,10.60
2023-02-17T01:25:32.064Z,9.55
2023-02-17T01:27:58.830Z,9.98
2023-02-17T01:30:25.805Z,9.98
2023-02-17T01:32:52.744Z,10.02
2023-02-17T01:35:19.616Z,10.63
2023-02-17T01:37:46.387Z,9.23
2023-02-17T01:40:17.182Z,10.55
2023-02-17T01:42:44.485Z,9.60
2023-02-17T01:45:20.414Z,9.73
2023-02-17T01:48:00.968Z,10.27
2023-02-17T01:51:00.875Z,9.50
2023-02-17T01:54:02.905Z,9.95
2023-02-17T01:56:33.157Z,8.52
2023-02-17T01:59:12.600Z,9.38
2023-02-17T02:01:40.109Z,9.77
2023-02-17T02:04:08.039Z,9.63
2023-02-17T02:06:38.633Z,9.63
2023-02-17T02:09:15.106Z,10.57
2023-02-17T02:11:41.948Z,9.93
2023-02-17T02:14:10.337Z,9.75
2023-02-17T02:16:45.713Z,9.52
2023-02-17T02:19:12.611Z,9.75
2023-02-17T02:22:04.138Z,9.95
2023-02-17T02:24:52.599Z,10.18
2023-02-17T02:27:46.804Z,9.05
2023-02-17T02:30:45.410Z,10.23
2023-02-17T02:33:22.384Z,10.02
2023-02-17T02:36:17.499Z,9.23
2023-02-17T02:39:00.208Z,9.27
2023-02-17T02:41:32.887Z,9.50
2023-02-17T02:43:59.795Z,8.95
2023-02-17T02:46:26.588Z,9.25
2023-02-17T02:48:53.612Z,9.10
2023-02-17T02:51:24.591Z,9.57
2023-02-17T02:53:54.064Z,9.20
2023-02-17T02:56:41.794Z,8.85
2023-02-17T02:59:36.544Z,9.27
2023-02-17T03:02:25.416Z,8.93
2023-02-17T03:04:58.276Z,9.70
2023-02-17T03:07:40.594Z,8.93
2023-02-17T03:10:08.328Z,9.30
2023-02-17T03:12:37.967Z,9.18
2023-02-17T03:15:20.761Z,8.10
2023-02-17T03:17:47.601Z,8.70
2023-02-17T03:20:15.511Z,8.70
2023-02-17T03:22:47.263Z,8.48
2023-02-17T03:25:14.810Z,8.70
2023-02-17T03:27:41.674Z,8.55
2023-02-17T03:30:10.192Z,8.40
2023-02-17T03:32:37.358Z,8.43
2023-02-17T03:35:04.779Z,8.00
2023-02-17T03:37:31.559Z,8.27
2023-02-17T03:39:58.314Z,8.35
2023-02-17T03:42:25.225Z,8.80
2023-02-17T03:44:52.011Z,8.13
2023-02-17T03:47:18.760Z,8.40
2023-02-17T03:49:45.702Z,8.27
2023-02-17T03:52:12.440Z,8.50
2023-02-17T03:54:39.319Z,8.23
2023-02-17T03:57:06.120Z,8.70
2023-02-17T03:59:33.037Z,8.65
2023-02-17T04:01:59.791Z,7.90
2023-02-17T04:04:26.603Z,8.10
2023-02-17T04:06:53.378Z,7.97
2023-02-17T04:09:20.134Z,8.13
2023-02-17T04:11:47.187Z,8.27
2023-02-17T04:14:14.072Z,7.82
2023-02-17T04:16:40.879Z,8.13
2023-02-17T04:19:08.023Z,8.38
2023-02-17T04:21:35.111Z,8.55
2023-02-17T04:24:02.864Z,8.45
2023-02-17T04:26:30.345Z,8.57
2023-02-17T04:28:57.287Z,8.88
2023-02-17T04:31:25.929Z,9.00
2023-02-17T04:33:52.882Z,8.15
2023-02-17T04:36:19.833Z,8.10
2023-02-17T04:38:46.587Z,7.88
2023-02-17T04:41:13.548Z,7.78
2023-02-17T04:43:40.320Z,9.20
2023-02-17T04:46:07.657Z,8.60
2023-02-17T04:48:34.961Z,7.82
2023-02-17T04:51:01.711Z,8.07
2023-02-17T04:53:28.992Z,8.60
2023-02-17T04:55:55.783Z,9.05
2023-02-17T04:58:22.710Z,7.70
2023-02-17T05:00:50.611Z,7.65
2023-02-17T05:03:18.622Z,8.38
2023-02-17T05:05:45.633Z,7.97
2023-02-17T05:08:12.439Z,8.02
2023-02-17T05:10:39.345Z,8.15
2023-02-17T05:13:06.288Z,8.00
2023-02-17T05:15:34.882Z,8.65
2023-02-17T05:18:02.619Z,8.40
2023-02-17T05:20:29.619Z,8.65
2023-02-17T05:22:56.398Z,8.45
2023-02-17T05:25:23.182Z,8.63
2023-02-17T05:27:50.012Z,8.75
2023-02-17T05:30:16.991Z,9.90
2023-02-17T05:32:43.804Z,8.75
2023-02-17T05:35:10.563Z,8.65
2023-02-17T05:37:37.348Z,8.57
2023-02-17T05:40:04.756Z,8.85
2023-02-17T05:42:31.708Z,8.60
2023-02-17T05:44:58.482Z,8.23
2023-02-17T05:47:27.582Z,8.02
2023-02-17T05:49:54.505Z,8.10
2023-02-17T05:52:21.282Z,7.97
2023-02-17T05:54:48.097Z,7.72
2023-02-17T05:57:14.902Z,8.57
2023-02-17T05:59:41.660Z,8.18
2023-02-17T06:02:08.449Z,8.32
2023-02-17T06:04:35.384Z,8.75
2023-02-17T06:07:02.279Z,8.07
2023-02-17T06:09:29.288Z,7.65
2023-02-17T06:11:56.060Z,8.15
2023-02-17T06:14:22.860Z,8.23
2023-02-17T06:16:49.655Z,7.80
2023-02-17T06:19:16.437Z,7.72
2023-02-17T06:21:43.196Z,8.52
2023-02-17T06:24:09.999Z,7.25
2023-02-17T06:26:36.777Z,8.05
2023-02-17T06:29:03.668Z,7.30
2023-02-17T06:31:30.555Z,7.43
2023-02-17T06:33:57.371Z,7.45
2023-02-17T06:36:24.275Z,8.30
2023-02-17T06:38:51.097Z,7.22
2023-02-17T06:41:17.881Z,7.80
2023-02-17T06:43:44.657Z,7.40
2023-02-17T06:46:11.863Z,7.55
2023-02-17T06:48:38.700Z,7.63
2023-02-17T06:51:05.621Z,7.10
2023-02-17T06:53:32.409Z,7.82
2023-02-17T06:55:59.385Z,7.70
2023-02-17T06:58:26.204Z,7.15
2023-02-17T07:00:52.983Z,7.85
2023-02-17T07:03:19.798Z,7.78
2023-02-17T07:05:46.742Z,6.90
2023-02-17T07:08:13.626Z,6.32
2023-02-17T07:10:40.454Z,7.97
2023-02-17T07:13:07.650Z,6.32
2023-02-17T07:15:34.946Z,6.82
2023-02-17T07:18:03.074Z,6.25
2023-02-17T07:20:31.921Z,6.35
2023-02-17T07:23:00.244Z,6.82
2023-02-17T07:25:27.040Z,6.00
2023-02-17T07:27:53.838Z,7.20
2023-02-17T07:30:20.799Z,6.22
2023-02-17T07:32:47.659Z,6.55
2023-02-17T07:35:14.450Z,7.32
2023-02-17T07:37:41.271Z,6.10
2023-02-17T07:40:08.415Z,6.38
2023-02-17T07:42:35.191Z,6.43
2023-02-17T07:45:01.930Z,6.63
2023-02-17T07:47:28.895Z,5.30
2023-02-17T07:49:55.916Z,5.70
2023-02-17T07:52:22.792Z,6.28
2023-02-17T07:54:49.622Z,6.03
2023-02-17T07:57:16.423Z,8.70
2023-02-17T07:59:43.201Z,4.90
2023-02-17T08:02:11.825Z,7.32
2023-02-17T08:04:38.659Z,6.85
2023-02-17T08:07:05.475Z,5.22
2023-02-17T08:09:51.098Z,5.63
2023-02-17T08:12:38.338Z,5.43
2023-02-17T08:15:07.620Z,5.53
2023-02-17T08:17:34.559Z,6.43
2023-02-17T08:20:07.959Z,5.28
2023-02-17T08:22:35.187Z,5.43
2023-02-17T08:25:01.992Z,5.60
2023-02-17T08:27:29.240Z,5.15
2023-02-17T08:29:56.091Z,5.70
2023-02-17T08:32:22.992Z,5.22
2023-02-17T08:34:50.076Z,5.07
2023-02-17T08:37:16.920Z,5.70
2023-02-17T08:39:43.949Z,6.78
2023-02-17T08:42:12.098Z,6.18
2023-02-17T08:44:39.138Z,4.82
2023-02-17T08:47:06.721Z,4.70
2023-02-17T08:49:33.558Z,6.07
2023-02-17T08:52:00.551Z,4.25
2023-02-17T08:54:27.659Z,4.20
2023-02-17T08:56:54.564Z,5.07
2023-02-17T08:59:21.761Z,4.03
2023-02-17T09:01:48.591Z,5.50
2023-02-17T09:04:16.327Z,3.85
2023-02-17T09:06:46.731Z,4.15
2023-02-17T09:09:16.088Z,3.10
2023-02-17T09:11:43.418Z,3.58
2023-02-17T09:14:10.491Z,4.00
2023-02-17T09:16:41.421Z,4.00
2023-02-17T09:19:08.706Z,3.30
2023-02-17T09:21:35.617Z,4.00
2023-02-17T09:24:02.478Z,3.20
2023-02-17T09:26:29.675Z,5.60
2023-02-17T09:28:57.867Z,4.03
2023-02-17T09:31:26.807Z,3.17
2023-02-17T09:33:54.521Z,3.65
2023-02-17T09:36:26.841Z,3.42
2023-02-17T09:38:53.851Z,4.40
2023-02-17T09:41:42.335Z,3.60
2023-02-17T09:44:43.336Z,4.22
2023-02-17T09:47:18.189Z,3.38
2023-02-17T09:49:53.694Z,4.07
2023-02-17T09:52:49.113Z,3.97
2023-02-17T09:55:41.000Z,3.17
2023-02-17T09:58:21.464Z,4.50
2023-02-17T10:00:53.488Z,4.10
2023-02-17T10:03:31.027Z,3.80
2023-02-17T10:06:24.406Z,3.42
2023-02-17T10:09:01.068Z,3.17
2023-02-17T10:11:35.200Z,3.78
2023-02-17T10:14:11.334Z,5.28
2023-02-17T10:17:19.196Z,5.20
2023-02-17T10:20:04.722Z,4.13
2023-02-17T10:22:32.851Z,3.80
2023-02-17T10:25:01.844Z,3.42
2023-02-17T10:27:41.410Z,3.22
2023-02-17T10:30:08.467Z,4.60
2023-02-17T10:32:58.221Z,3.33
2023-02-17T10:35:53.260Z,3.20
2023-02-17T10:38:22.826Z,2.70
2023-02-17T10:40:51.523Z,3.63
2023-02-17T10:43:26.970Z,3.58
2023-02-17T10:45:54.422Z,3.80
2023-02-17T10:48:34.524Z,2.55
2023-02-17T10:51:01.905Z,2.45
2023-02-17T10:53:33.140Z,2.88
2023-02-17T10:56:14.482Z,3.67
2023-02-17T10:58:41.282Z,2.63
2023-02-17T11:01:08.614Z,2.75
2023-02-17T11:03:38.166Z,3.33
2023-02-17T11:06:15.071Z,3.03
2023-02-17T11:09:33.156Z,3.13
2023-02-17T11:12:25.049Z,3.28
2023-02-17T11:14:54.919Z,2.83
2023-02-17T11:17:34.500Z,4.00
2023-02-17T11:20:06.024Z,3.15
2023-02-17T11:22:49.192Z,2.25
2023-02-17T11:25:23.221Z,2.08
2023-02-17T11:27:55.674Z,3.60
2023-02-17T11:30:23.641Z,2.20
2023-02-17T11:32:50.768Z,2.67
2023-02-17T11:35:41.697Z,3.17
2023-02-17T11:38:21.409Z,2.20
2023-02-17T11:40:55.964Z,1.80
2023-02-17T11:43:23.730Z,2.25
2023-02-17T11:46:00.732Z,3.13
2023-02-17T11:48:39.852Z,3.63
2023-02-17T11:51:31.030Z,2.05
2023-02-17T11:54:04.329Z,4.80
2023-02-17T11:56:36.837Z,2.85
2023-02-17T11:59:24.900Z,2.45
2023-02-17T12:02:00.806Z,2.72
2023-02-17T12:04:32.737Z,2.38
2023-02-17T12:07:24.758Z,1.83
2023-02-17T12:09:57.795Z,2.78
2023-02-17T12:12:33.723Z,2.53
2023-02-17T12:15:27.569Z,3.35
2023-02-17T12:18:21.890Z,2.20
2023-02-17T12:20:54.274Z,1.92
2023-02-17T12:23:38.872Z,1.88
2023-02-17T12:26:34.732Z,3.10
2023-02-17T12:29:23.552Z,2.20
2023-02-17T12:32:26.119Z,2.17
2023-02-17T12:35:03.757Z,2.92
2023-02-17T12:37:38.508Z,2.85
2023-02-17T12:40:43.495Z,1.77
2023-02-17T12:43:49.223Z,1.45
2023-02-17T12:46:29.394Z,3.40
2023-02-17T12:49:06.568Z,2.63
2023-02-17T12:52:02.423Z,2.05
2023-02-17T12:54:32.457Z,1.38
2023-02-17T12:57:37.179Z,1.80
2023-02-17T13:00:23.765Z,2.58
2023-02-17T13:02:50.658Z,2.58
2023-02-17T13:05:26.457Z,1.95
2023-02-17T13:08:11.376Z,1.30
2023-02-17T13:10:40.738Z,1.83
2023-02-17T13:13:14.256Z,2.38
2023-02-17T13:15:45.660Z,1.98
2023-02-17T13:18:14.154Z,1.40
2023-02-17T13:20:57.047Z,1.88
2023-02-17T13:23:37.469Z,1.30
2023-02-17T13:26:21.789Z,1.10
2023-02-17T13:28:50.580Z,1.02
2023-02-17T13:31:26.315Z,1.13
2023-02-17T13:33:59.498Z,1.50
2023-02-17T13:36:29.067Z,1.23
2023-02-17T13:39:04.957Z,1.23
2023-02-17T13:41:47.042Z,1.10
2023-02-17T13:44:28.783Z,1.40
2023-02-17T13:47:03.776Z,1.02
2023-02-17T13:49:34.978Z,2.67
2023-02-17T13:52:19.588Z,1.50
2023-02-17T13:55:05.568Z,1.17
2023-02-17T13:57:34.964Z,1.05
2023-02-17T14:00:09.155Z,1.70
2023-02-17T14:02:45.270Z,1.27
2023-02-17T14:05:19.625Z,1.60
2023-02-17T14:07:48.556Z,0.88
2023-02-17T14:10:22.351Z,1.42
2023-02-17T14:12:49.809Z,3.08
2023-02-17T14:15:19.309Z,1.80
2023-02-17T14:17:46.618Z,1.90
2023-02-17T14:20:49.718Z,1.70
2023-02-17T14:23:23.968Z,1.38
2023-02-17T14:25:52.840Z,2.30
2023-02-17T14:28:27.054Z,1.13
2023-02-17T14:30:54.103Z,1.73
2023-02-17T14:33:24.008Z,2.50
2023-02-17T14:35:55.533Z,1.95
2023-02-17T14:38:27.596Z,2.22
2023-02-17T14:40:55.923Z,1.40
2023-02-17T14:43:23.525Z,1.10
2023-02-17T14:45:51.249Z,0.75
2023-02-17T14:48:18.320Z,1.83
2023-02-17T14:50:45.926Z,1.65
2023-02-17T14:53:31.139Z,1.20
2023-02-17T14:56:07.341Z,1.30
2023-02-17T14:58:34.507Z,1.20
2023-02-17T15:01:01.851Z,1.08
2023-02-17T15:03:28.708Z,0.75
2023-02-17T15:05:55.684Z,0.88
2023-02-17T15:08:29.674Z,0.70
2023-02-17T15:10:56.476Z,1.17
2023-02-17T15:13:23.350Z,1.05
2023-02-17T15:15:50.228Z,1.00
2023-02-17T15:18:19.639Z,0.90
2023-02-17T15:20:50.249Z,1.45
2023-02-17T15:23:19.639Z,0.93
2023-02-17T15:25:47.202Z,1.30
2023-02-17T15:28:16.250Z,1.50
2023-02-17T15:30:46.420Z,1.40
2023-02-17T15:33:13.804Z,1.25
2023-02-17T15:35:41.033Z,1.63
2023-02-17T15:38:12.663Z,1.58
2023-02-17T15:40:40.609Z,1.38
2023-02-17T15:43:12.184Z,1.13
2023-02-17T15:45:39.015Z,1.27
2023-02-17T15:48:24.672Z,0.90
2023-02-17T15:50:52.107Z,1.52
2023-02-17T15:53:19.357Z,1.42
2023-02-17T15:55:46.985Z,2.03
2023-02-17T15:58:17.211Z,1.63
2023-02-17T16:00:49.828Z,1.05
2023-02-17T16:03:17.384Z,1.08
2023-02-17T16:05:44.451Z,0.75
2023-02-17T16:08:11.615Z,1.45
2023-02-17T16:10:40.433Z,1.13
2023-02-17T16:13:08.002Z,1.48
2023-02-17T16:15:37.506Z,1.50
2023-02-17T16:18:04.390Z,1.50
2023-02-17T16:20:34.623Z,1.67
2023-02-17T16:23:02.221Z,1.65
2023-02-17T16:25:29.769Z,0.68
2023-02-17T16:27:57.187Z,1.52
2023-02-17T16:30:33.864Z,1.23
2023-02-17T16:33:01.522Z,1.02
2023-02-17T16:35:31.715Z,0.98
2023-02-17T16:38:12.761Z,0.93
2023-02-17T16:40:47.377Z,1.17
2023-02-17T16:43:16.580Z,1.30
2023-02-17T16:45:54.693Z,1.17
2023-02-17T16:48:27.136Z,1.10
2023-02-17T16:50:54.145Z,1.73
2023-02-17T16:53:21.613Z,1.67
2023-02-17T16:55:49.038Z,1.05
2023-02-17T16:58:22.376Z,1.42
2023-02-17T17:00:52.115Z,1.58
2023-02-17T17:03:20.110Z,2.05
2023-02-17T17:05:46.952Z,1.15
2023-02-17T17:08:16.346Z,1.85
2023-02-17T17:10:45.077Z,1.27
2023-02-17T17:13:12.861Z,1.45
2023-02-17T17:15:43.696Z,1.33
2023-02-17T17:18:18.840Z,1.10
2023-02-17T17:20:45.696Z,1.00
2023-02-17T17:23:14.950Z,1.02
2023-02-17T17:25:45.630Z,0.77
2023-02-17T17:28:19.713Z,0.90
2023-02-17T17:30:47.474Z,0.98
2023-02-17T17:33:14.484Z,0.93
2023-02-17T17:35:41.242Z,0.75
2023-02-17T17:38:09.645Z,0.98
2023-02-17T17:40:48.203Z,0.77
2023-02-17T17:43:16.926Z,0.77
2023-02-17T17:45:43.767Z,1.08
2023-02-17T17:48:14.207Z,1.02
2023-02-17T17:50:41.434Z,0.90
2023-02-17T17:53:08.722Z,0.60
2023-02-17T17:55:35.916Z,1.10
2023-02-17T17:58:03.028Z,1.25
2023-02-17T18:00:29.987Z,0.85
2023-02-17T18:02:56.810Z,1.05
2023-02-17T18:05:23.699Z,0.90
2023-02-17T18:07:50.965Z,0.65
2023-02-17T18:10:18.021Z,0.80
2023-02-17T18:12:47.057Z,1.17
2023-02-17T18:15:15.385Z,0.55
2023-02-17T18:17:43.084Z,0.63
2023-02-17T18:20:11.531Z,2.38
2023-02-17T18:22:38.559Z,1.40
2023-02-17T18:25:06.020Z,0.75
2023-02-17T18:27:44.598Z,0.85
2023-02-17T18:30:14.320Z,0.88
2023-02-17T18:32:42.098Z,0.95
2023-02-17T18:35:10.125Z,2.10
2023-02-17T18:37:36.900Z,1.40
2023-02-17T18:40:04.223Z,1.27
2023-02-17T18:42:31.504Z,1.10
2023-02-17T18:44:58.255Z,1.38
2023-02-17T18:47:25.042Z,1.38
2023-02-17T18:49:52.100Z,0.90
2023-02-17T18:52:18.998Z,1.33
2023-02-17T18:54:46.209Z,1.90
2023-02-17T18:57:13.097Z,1.05
2023-02-17T18:59:39.905Z,0.77
2023-02-17T19:02:08.861Z,0.60
2023-02-17T19:04:36.070Z,0.68
2023-02-17T19:07:04.080Z,1.00
2023-02-17T19:09:36.046Z,1.13
2023-02-17T19:12:02.920Z,0.70
2023-02-17T19:14:33.161Z,1.02
2023-02-17T19:16:59.925Z,0.57
2023-02-17T19:19:30.228Z,0.93
2023-02-17T19:21:57.690Z,1.13
2023-02-17T19:24:24.427Z,1.42
2023-02-17T19:26:51.345Z,0.70
2023-02-17T19:29:18.150Z,1.05
2023-02-17T19:31:44.964Z,0.60
2023-02-17T19:34:11.970Z,1.30
2023-02-17T19:36:38.752Z,1.17
2023-02-17T19:39:05.973Z,1.38
2023-02-17T19:41:34.973Z,1.25
2023-02-17T19:44:02.712Z,1.05
2023-02-17T19:46:29.796Z,1.25
2023-02-17T19:48:56.840Z,2.75
2023-02-17T19:51:23.856Z,0.85
2023-02-17T19:53:50.639Z,0.65
2023-02-17T19:56:23.579Z,2.17
2023-02-17T19:58:50.710Z,1.95
2023-02-17T20:01:23.573Z,0.93
2023-02-17T20:03:51.339Z,1.20
2023-02-17T20:06:25.002Z,1.15
2023-02-17T20:08:54.399Z,1.25
2023-02-17T20:11:21.495Z,1.00
2023-02-17T20:13:48.300Z,1.05
2023-02-17T20:16:16.477Z,0.93
2023-02-17T20:18:45.763Z,0.95
2023-02-17T20:21:15.734Z,1.23
2023-02-17T20:23:42.594Z,0.73
2023-02-17T20:26:12.289Z,3.17
2023-02-17T20:28:39.269Z,1.90
2023-02-17T20:31:06.979Z,1.00
2023-02-17T20:33:34.068Z,1.02
2023-02-17T20:36:00.841Z,1.17
2023-02-17T20:38:28.052Z,4.03
2023-02-17T20:40:55.420Z,0.70
2023-02-17T20:43:22.227Z,0.85
2023-02-17T20:45:49.740Z,1.70
2023-02-17T20:48:19.391Z,0.68
2023-02-17T20:50:46.562Z,1.63
2023-02-17T20:53:13.324Z,0.70
2023-02-17T20:55:40.162Z,1.00
2023-02-17T20:58:07.281Z,1.52
2023-02-17T21:00:34.103Z,1.35
2023-02-17T21:03:01.149Z,0.50
2023-02-17T21:05:28.000Z,1.30
2023-02-17T21:07:56.509Z,0.88
2023-02-17T21:10:27.109Z,0.52
2023-02-17T21:12:54.422Z,1.17
2023-02-17T21:15:22.119Z,0.73
2023-02-17T21:17:48.864Z,0.90
2023-02-17T21:20:18.911Z,0.75
2023-02-17T21:22:45.826Z,0.65
2023-02-17T21:25:12.908Z,0.75
2023-02-17T21:27:39.744Z,0.60
2023-02-17T21:30:08.301Z,1.25
2023-02-17T21:32:35.337Z,1.20
2023-02-17T21:35:02.352Z,0.63
2023-02-17T21:37:29.472Z,0.88
2023-02-17T21:39:56.323Z,0.73
2023-02-17T21:42:44.633Z,1.15
2023-02-17T21:45:13.545Z,0.63
2023-02-17T21:47:40.310Z,1.50
2023-02-17T21:50:07.755Z,0.63
2023-02-17T21:52:34.472Z,0.77
2023-02-17T21:55:01.607Z,0.55
2023-02-17T21:57:28.602Z,0.80
2023-02-17T21:59:55.366Z,0.90
2023-02-17T22:02:22.202Z,3.13
2023-02-17T22:04:49.064Z,0.40
2023-02-17T22:07:15.888Z,1.65
2023-02-17T22:09:42.700Z,1.67
2023-02-17T22:12:09.438Z,1.15
2023-02-17T22:14:36.264Z,0.65
2023-02-17T22:17:03.146Z,1.48
2023-02-17T22:19:31.540Z,0.93
2023-02-17T22:21:58.617Z,0.47
2023-02-17T22:24:27.178Z,0.75
2023-02-17T22:26:54.786Z,0.93
2023-02-17T22:29:21.688Z,0.60
2023-02-17T22:31:50.377Z,0.43
2023-02-17T22:34:17.586Z,0.82
2023-02-17T22:36:44.635Z,1.10
2023-02-17T22:39:11.383Z,0.65
2023-02-17T22:41:39.322Z,0.60
2023-02-17T22:44:06.518Z,0.88
2023-02-17T22:46:34.262Z,0.60
2023-02-17T22:49:01.559Z,0.95
2023-02-17T22:51:36.233Z,1.25
2023-02-17T22:54:03.511Z,0.70
2023-02-17T22:56:30.657Z,1.48
2023-02-17T22:59:00.967Z,0.40
2023-02-17T23:01:30.054Z,0.85
2023-02-17T23:03:56.886Z,0.50
2023-02-17T23:06:26.729Z,0.77
2023-02-17T23:08:54.119Z,1.13
2023-02-17T23:11:43.821Z,0.50
2023-02-17T23:14:12.104Z,1.55
2023-02-17T23:16:39.432Z,1.13
2023-02-17T23:19:12.586Z,0.52
2023-02-17T23:21:50.352Z,0.40
2023-02-17T23:24:18.372Z,0.98
2023-02-17T23:26:47.408Z,0.50
2023-02-17T23:29:15.196Z,0.60
2023-02-17T23:31:42.001Z,0.73
2023-02-17T23:34:10.957Z,0.50
2023-02-17T23:36:42.180Z,0.57
2023-02-17T23:39:09.353Z,1.10
2023-02-17T23:41:37.336Z,0.73
2023-02-17T23:44:04.922Z,0.38
2023-02-17T23:46:31.872Z,0.60
2023-02-17T23:48:58.716Z,0.40
2023-02-17T23:51:25.794Z,0.52
2023-02-17T23:53:52.788Z,0.88
2023-02-17T23:56:27.030Z,1.05
2023-02-17T23:58:54.311Z,0.40
